RA5225 URML-URWA
Flight info
| Callsign | RA5225 |
|---|---|
| Flight time | 1h 28m |
| Altitude | 6000 |
| Route | EMTEZ DCT AMKOL B945 UP |
| Aircraft | DA62/L-SDFGRY/C |
Departure
| Time | 2026-04-29 14:31 |
|---|---|
| Airport | Makhachkala Uytash International Airport (URML) |
Arrival
| Time | 2026-04-29 15:59 |
|---|---|
| Airport | Astrakhan Narimanovo Boris M. Kustodiev International Airport (URWA) |
| Time | Latitude | Longitude | Altitude | Speed | Heading |
|---|---|---|---|---|---|
| 2026-04-29 14:08 | 42.81681 | 47.65645 | 16 ft | 0 kts | 126° |
| 2026-04-29 14:23 | 42.81679 | 47.65697 | 16 ft | 10 kts | 45° |
| 2026-04-29 14:23 | 42.81690 | 47.65706 | 16 ft | 0 kts | 15° |
| 2026-04-29 14:23 | 42.81701 | 47.65710 | 16 ft | 7 kts | 15° |
| 2026-04-29 14:23 | 42.81749 | 47.65718 | 16 ft | 4 kts | 311° |
| 2026-04-29 14:24 | 42.81772 | 47.65676 | 16 ft | 4 kts | 306° |
| 2026-04-29 14:24 | 42.81777 | 47.65668 | 16 ft | 0 kts | 306° |
| 2026-04-29 14:25 | 42.81792 | 47.65615 | 16 ft | 8 kts | 259° |
| 2026-04-29 14:25 | 42.81760 | 47.65552 | 16 ft | 9 kts | 234° |
| 2026-04-29 14:25 | 42.81725 | 47.65476 | 16 ft | 10 kts | 238° |
| 2026-04-29 14:25 | 42.81699 | 47.65420 | 16 ft | 6 kts | 238° |
| 2026-04-29 14:26 | 42.81694 | 47.65408 | 16 ft | 0 kts | 238° |
| 2026-04-29 14:28 | 42.81688 | 47.65395 | 16 ft | 5 kts | 238° |
| 2026-04-29 14:28 | 42.81677 | 47.65371 | 16 ft | 0 kts | 238° |
| 2026-04-29 14:28 | 42.81676 | 47.65370 | 16 ft | 1 kts | 238° |
| 2026-04-29 14:28 | 42.81652 | 47.65317 | 15 ft | 13 kts | 239° |
| 2026-04-29 14:29 | 42.81652 | 47.65260 | 15 ft | 0 kts | 337° |
| 2026-04-29 14:29 | 42.81765 | 47.65165 | 13 ft | 52 kts | 329° |
| 2026-04-29 14:29 | 42.82222 | 47.64780 | 29 ft | 96 kts | 328° |
| 2026-04-29 14:30 | 42.82791 | 47.64221 | 255 ft | 104 kts | 318° |
| 2026-04-29 14:30 | 42.83216 | 47.63366 | 368 ft | 127 kts | 304° |
| 2026-04-29 14:30 | 42.83738 | 47.62290 | 380 ft | 141 kts | 306° |
| 2026-04-29 14:30 | 42.84290 | 47.61191 | 531 ft | 142 kts | 306° |
| 2026-04-29 14:31 | 42.84868 | 47.60049 | 547 ft | 147 kts | 307° |
| 2026-04-29 14:31 | 42.85442 | 47.58930 | 695 ft | 142 kts | 307° |
| 2026-04-29 14:31 | 42.86007 | 47.57837 | 855 ft | 141 kts | 308° |
| 2026-04-29 14:31 | 42.86573 | 47.56753 | 1009 ft | 139 kts | 308° |
| 2026-04-29 14:32 | 42.87136 | 47.55687 | 1159 ft | 139 kts | 309° |
| 2026-04-29 14:32 | 42.87705 | 47.54620 | 1299 ft | 138 kts | 309° |
| 2026-04-29 14:32 | 42.88275 | 47.53564 | 1446 ft | 139 kts | 309° |
| 2026-04-29 14:32 | 42.88849 | 47.52508 | 1583 ft | 138 kts | 308° |
| 2026-04-29 14:33 | 42.89447 | 47.51476 | 1727 ft | 139 kts | 319° |
| 2026-04-29 14:33 | 42.90301 | 47.50885 | 1874 ft | 138 kts | 336° |
| 2026-04-29 14:33 | 42.91138 | 47.50241 | 2024 ft | 137 kts | 330° |
| 2026-04-29 14:33 | 42.91935 | 47.49588 | 2226 ft | 129 kts | 330° |
| 2026-04-29 14:34 | 42.92706 | 47.48967 | 2389 ft | 132 kts | 330° |
| 2026-04-29 14:34 | 42.93511 | 47.48327 | 2549 ft | 136 kts | 330° |
| 2026-04-29 14:34 | 42.94337 | 47.47668 | 2705 ft | 139 kts | 330° |
| 2026-04-29 14:34 | 42.95172 | 47.46998 | 2889 ft | 137 kts | 331° |
| 2026-04-29 14:35 | 42.96004 | 47.46338 | 3062 ft | 140 kts | 332° |
| 2026-04-29 14:35 | 42.96854 | 47.45670 | 3253 ft | 143 kts | 332° |
| 2026-04-29 14:35 | 42.97716 | 47.45001 | 3621 ft | 141 kts | 332° |
| 2026-04-29 14:35 | 42.98579 | 47.44338 | 3941 ft | 143 kts | 333° |
| 2026-04-29 14:36 | 42.99449 | 47.43676 | 4253 ft | 144 kts | 333° |
| 2026-04-29 14:36 | 43.00325 | 47.43016 | 4562 ft | 144 kts | 334° |
| 2026-04-29 14:36 | 43.01200 | 47.42364 | 4865 ft | 145 kts | 334° |
| 2026-04-29 14:36 | 43.02090 | 47.41708 | 5163 ft | 145 kts | 334° |
| 2026-04-29 14:37 | 43.02986 | 47.41054 | 5455 ft | 146 kts | 334° |
| 2026-04-29 14:37 | 43.03888 | 47.40403 | 5758 ft | 146 kts | 334° |
| 2026-04-29 14:37 | 43.04797 | 47.39753 | 5997 ft | 153 kts | 334° |
| 2026-04-29 14:37 | 43.05792 | 47.39051 | 6003 ft | 168 kts | 334° |
| 2026-04-29 14:38 | 43.06870 | 47.38303 | 6007 ft | 177 kts | 335° |
| 2026-04-29 14:38 | 43.07992 | 47.37536 | 6008 ft | 183 kts | 335° |
| 2026-04-29 14:38 | 43.09141 | 47.36758 | 6005 ft | 186 kts | 335° |
| 2026-04-29 14:38 | 43.10316 | 47.35974 | 6007 ft | 189 kts | 335° |
| 2026-04-29 14:39 | 43.11509 | 47.35183 | 6004 ft | 191 kts | 336° |
| 2026-04-29 14:39 | 43.12696 | 47.34402 | 6004 ft | 192 kts | 336° |
| 2026-04-29 14:39 | 43.13909 | 47.33613 | 6005 ft | 193 kts | 336° |
| 2026-04-29 14:39 | 43.15131 | 47.32831 | 6003 ft | 193 kts | 338° |
| 2026-04-29 14:40 | 43.16448 | 47.32681 | 5992 ft | 192 kts | 10° |
| 2026-04-29 14:40 | 43.17747 | 47.33064 | 5999 ft | 191 kts | 14° |
| 2026-04-29 14:40 | 43.19035 | 47.33493 | 5998 ft | 190 kts | 14° |
| 2026-04-29 14:40 | 43.20324 | 47.33923 | 5997 ft | 190 kts | 14° |
| 2026-04-29 14:41 | 43.21609 | 47.34350 | 5999 ft | 190 kts | 15° |
| 2026-04-29 14:41 | 43.22890 | 47.34770 | 5997 ft | 189 kts | 14° |
| 2026-04-29 14:41 | 43.24170 | 47.35197 | 5998 ft | 189 kts | 15° |
| 2026-04-29 14:41 | 43.25448 | 47.35623 | 5998 ft | 189 kts | 14° |
| 2026-04-29 14:42 | 43.26725 | 47.36059 | 6005 ft | 189 kts | 14° |
| 2026-04-29 14:42 | 43.27995 | 47.36494 | 6005 ft | 188 kts | 14° |
| 2026-04-29 14:42 | 43.29264 | 47.36929 | 6006 ft | 187 kts | 14° |
| 2026-04-29 14:42 | 43.30526 | 47.37359 | 6005 ft | 187 kts | 14° |
| 2026-04-29 14:43 | 43.31790 | 47.37794 | 6002 ft | 187 kts | 14° |
| 2026-04-29 14:43 | 43.33057 | 47.38233 | 6002 ft | 188 kts | 14° |
| 2026-04-29 14:43 | 43.34326 | 47.38673 | 5999 ft | 188 kts | 15° |
| 2026-04-29 14:43 | 43.35580 | 47.39096 | 5998 ft | 188 kts | 14° |
| 2026-04-29 14:44 | 43.36850 | 47.39522 | 6002 ft | 188 kts | 14° |
| 2026-04-29 14:44 | 43.38121 | 47.39949 | 6001 ft | 188 kts | 14° |
| 2026-04-29 14:44 | 43.39391 | 47.40381 | 6001 ft | 188 kts | 14° |
| 2026-04-29 14:44 | 43.40661 | 47.40813 | 6001 ft | 188 kts | 14° |
| 2026-04-29 14:45 | 43.41506 | 47.41103 | 6001 ft | 188 kts | 15° |
| 2026-04-29 14:45 | 43.43207 | 47.41682 | 6002 ft | 188 kts | 14° |
| 2026-04-29 14:45 | 43.44049 | 47.41969 | 6001 ft | 188 kts | 15° |
| 2026-04-29 14:45 | 43.45324 | 47.42396 | 6001 ft | 188 kts | 15° |
| 2026-04-29 14:46 | 43.47007 | 47.42968 | 6001 ft | 188 kts | 14° |
| 2026-04-29 14:46 | 43.47868 | 47.43262 | 6001 ft | 188 kts | 15° |
| 2026-04-29 14:46 | 43.49523 | 47.43952 | 6005 ft | 187 kts | 22° |
| 2026-04-29 14:46 | 43.50333 | 47.44419 | 6004 ft | 187 kts | 24° |
| 2026-04-29 14:47 | 43.51526 | 47.45124 | 6003 ft | 186 kts | 24° |
| 2026-04-29 14:47 | 43.52696 | 47.45816 | 6002 ft | 186 kts | 24° |
| 2026-04-29 14:47 | 43.53884 | 47.46522 | 5995 ft | 186 kts | 24° |
| 2026-04-29 14:47 | 43.55086 | 47.47238 | 5917 ft | 190 kts | 24° |
| 2026-04-29 14:48 | 43.56304 | 47.47963 | 5835 ft | 191 kts | 24° |
| 2026-04-29 14:48 | 43.57559 | 47.48577 | 5733 ft | 193 kts | 17° |
| 2026-04-29 14:48 | 43.58871 | 47.49078 | 5527 ft | 197 kts | 15° |
| 2026-04-29 14:48 | 43.60200 | 47.49574 | 5325 ft | 194 kts | 16° |
| 2026-04-29 14:49 | 43.61387 | 47.50013 | 5111 ft | 161 kts | 15° |
| 2026-04-29 14:49 | 43.62396 | 47.50101 | 5005 ft | 131 kts | 353° |
| 2026-04-29 14:49 | 43.63318 | 47.49879 | 5007 ft | 139 kts | 353° |
| 2026-04-29 14:49 | 43.64330 | 47.49640 | 4861 ft | 155 kts | 353° |
| 2026-04-29 14:50 | 43.65430 | 47.49381 | 4710 ft | 168 kts | 353° |
| 2026-04-29 14:50 | 43.66636 | 47.49099 | 4538 ft | 183 kts | 353° |
| 2026-04-29 14:50 | 43.67926 | 47.48804 | 4307 ft | 192 kts | 353° |
| 2026-04-29 14:50 | 43.69248 | 47.48500 | 4080 ft | 197 kts | 353° |
| 2026-04-29 14:51 | 43.70615 | 47.48202 | 3850 ft | 199 kts | 354° |
| 2026-04-29 14:51 | 43.71940 | 47.47923 | 3618 ft | 183 kts | 354° |
| 2026-04-29 14:51 | 43.73145 | 47.47710 | 3391 ft | 168 kts | 356° |
| 2026-04-29 14:51 | 43.74273 | 47.47540 | 3157 ft | 159 kts | 356° |
| 2026-04-29 14:52 | 43.75345 | 47.47376 | 3014 ft | 151 kts | 357° |
| 2026-04-29 14:52 | 43.76390 | 47.47208 | 3014 ft | 152 kts | 356° |
| 2026-04-29 14:52 | 43.77481 | 47.47036 | 3014 ft | 163 kts | 356° |
| 2026-04-29 14:52 | 43.78636 | 47.46864 | 2934 ft | 173 kts | 357° |
| 2026-04-29 14:53 | 43.79866 | 47.46687 | 2782 ft | 181 kts | 357° |
| 2026-04-29 14:53 | 43.81132 | 47.46506 | 2630 ft | 185 kts | 356° |
| 2026-04-29 14:53 | 43.82390 | 47.46327 | 2468 ft | 170 kts | 357° |
| 2026-04-29 14:53 | 43.83511 | 47.46135 | 2305 ft | 156 kts | 354° |
| 2026-04-29 14:54 | 43.84535 | 47.45924 | 2214 ft | 144 kts | 355° |
| 2026-04-29 14:54 | 43.85585 | 47.45729 | 2217 ft | 160 kts | 356° |
| 2026-04-29 14:54 | 43.86728 | 47.45529 | 2177 ft | 171 kts | 356° |
| 2026-04-29 14:54 | 43.87936 | 47.45323 | 2123 ft | 178 kts | 355° |
| 2026-04-29 14:55 | 43.89173 | 47.45090 | 2115 ft | 180 kts | 355° |
| 2026-04-29 14:55 | 43.90417 | 47.44871 | 2115 ft | 180 kts | 355° |
| 2026-04-29 14:55 | 43.91664 | 47.44666 | 2115 ft | 180 kts | 355° |
| 2026-04-29 14:55 | 43.92862 | 47.44471 | 2108 ft | 163 kts | 356° |
| 2026-04-29 14:56 | 43.93961 | 47.44263 | 2109 ft | 163 kts | 355° |
| 2026-04-29 14:56 | 43.95108 | 47.44045 | 2110 ft | 166 kts | 355° |
| 2026-04-29 14:56 | 43.96228 | 47.43829 | 2109 ft | 163 kts | 355° |
| 2026-04-29 14:56 | 43.97349 | 47.43613 | 2111 ft | 163 kts | 355° |
| 2026-04-29 14:57 | 43.98481 | 47.43421 | 2109 ft | 164 kts | 356° |
| 2026-04-29 14:57 | 43.99613 | 47.43230 | 2108 ft | 164 kts | 355° |
| 2026-04-29 14:57 | 44.00743 | 47.43012 | 2113 ft | 163 kts | 355° |
| 2026-04-29 14:57 | 44.01863 | 47.42792 | 2108 ft | 162 kts | 355° |
| 2026-04-29 14:58 | 44.03000 | 47.42573 | 2112 ft | 168 kts | 355° |
| 2026-04-29 14:58 | 44.04178 | 47.42359 | 2114 ft | 172 kts | 355° |
| 2026-04-29 14:58 | 44.05372 | 47.42132 | 2115 ft | 174 kts | 355° |
| 2026-04-29 14:58 | 44.06574 | 47.41896 | 2115 ft | 175 kts | 355° |
| 2026-04-29 14:59 | 44.07705 | 47.41667 | 2108 ft | 156 kts | 355° |
| 2026-04-29 14:59 | 44.08726 | 47.41454 | 2100 ft | 142 kts | 355° |
| 2026-04-29 14:59 | 44.09747 | 47.41260 | 2104 ft | 156 kts | 356° |
| 2026-04-29 14:59 | 44.10865 | 47.41082 | 2110 ft | 166 kts | 357° |
| 2026-04-29 15:00 | 44.12038 | 47.40912 | 2109 ft | 172 kts | 357° |
| 2026-04-29 15:00 | 44.13243 | 47.40731 | 2110 ft | 175 kts | 356° |
| 2026-04-29 15:00 | 44.14449 | 47.40560 | 2109 ft | 171 kts | 357° |
| 2026-04-29 15:00 | 44.15602 | 47.40378 | 2108 ft | 163 kts | 356° |
| 2026-04-29 15:01 | 44.16714 | 47.40199 | 2105 ft | 159 kts | 356° |
| 2026-04-29 15:01 | 44.17805 | 47.40034 | 2106 ft | 157 kts | 356° |
| 2026-04-29 15:01 | 44.18886 | 47.39823 | 2105 ft | 157 kts | 353° |
| 2026-04-29 15:01 | 44.19963 | 47.39550 | 2104 ft | 157 kts | 353° |
| 2026-04-29 15:02 | 44.21037 | 47.39278 | 2101 ft | 156 kts | 354° |
| 2026-04-29 15:02 | 44.22123 | 47.39044 | 2107 ft | 162 kts | 355° |
| 2026-04-29 15:02 | 44.23273 | 47.38820 | 2107 ft | 170 kts | 355° |
| 2026-04-29 15:02 | 44.24459 | 47.38594 | 2106 ft | 171 kts | 356° |
| 2026-04-29 15:03 | 44.25628 | 47.38385 | 2095 ft | 168 kts | 356° |
| 2026-04-29 15:03 | 44.26802 | 47.38181 | 2071 ft | 172 kts | 356° |
| 2026-04-29 15:03 | 44.28001 | 47.37983 | 2047 ft | 175 kts | 356° |
| 2026-04-29 15:03 | 44.29206 | 47.37775 | 2052 ft | 172 kts | 355° |
| 2026-04-29 15:04 | 44.30363 | 47.37556 | 2047 ft | 166 kts | 355° |
| 2026-04-29 15:04 | 44.31504 | 47.37351 | 2025 ft | 169 kts | 355° |
| 2026-04-29 15:04 | 44.32669 | 47.37138 | 2013 ft | 169 kts | 355° |
| 2026-04-29 15:04 | 44.33808 | 47.36931 | 2038 ft | 165 kts | 355° |
| 2026-04-29 15:05 | 44.34950 | 47.36726 | 2063 ft | 163 kts | 355° |
| 2026-04-29 15:05 | 44.36064 | 47.36519 | 2088 ft | 162 kts | 355° |
| 2026-04-29 15:05 | 44.37188 | 47.36335 | 2102 ft | 164 kts | 355° |
| 2026-04-29 15:05 | 44.38335 | 47.36133 | 2102 ft | 167 kts | 355° |
| 2026-04-29 15:06 | 44.39497 | 47.35926 | 2105 ft | 169 kts | 355° |
| 2026-04-29 15:06 | 44.40664 | 47.35720 | 2107 ft | 169 kts | 355° |
| 2026-04-29 15:06 | 44.41837 | 47.35500 | 2108 ft | 170 kts | 354° |
| 2026-04-29 15:06 | 44.42994 | 47.35274 | 2106 ft | 169 kts | 355° |
| 2026-04-29 15:07 | 44.44157 | 47.35052 | 2102 ft | 168 kts | 354° |
| 2026-04-29 15:07 | 44.45315 | 47.34833 | 2105 ft | 168 kts | 355° |
| 2026-04-29 15:07 | 44.46483 | 47.34617 | 2104 ft | 172 kts | 355° |
| 2026-04-29 15:07 | 44.47690 | 47.34403 | 2103 ft | 177 kts | 355° |
| 2026-04-29 15:08 | 44.48916 | 47.34188 | 2103 ft | 178 kts | 355° |
| 2026-04-29 15:08 | 44.50147 | 47.33974 | 2104 ft | 179 kts | 355° |
| 2026-04-29 15:08 | 44.51385 | 47.33752 | 2106 ft | 179 kts | 355° |
| 2026-04-29 15:08 | 44.52626 | 47.33529 | 2105 ft | 180 kts | 355° |
| 2026-04-29 15:09 | 44.53871 | 47.33307 | 2105 ft | 180 kts | 355° |
| 2026-04-29 15:09 | 44.55114 | 47.33081 | 2105 ft | 180 kts | 355° |
| 2026-04-29 15:09 | 44.56362 | 47.32855 | 2103 ft | 182 kts | 355° |
| 2026-04-29 15:09 | 44.57619 | 47.32619 | 2103 ft | 181 kts | 355° |
| 2026-04-29 15:10 | 44.58820 | 47.32394 | 2103 ft | 168 kts | 355° |
| 2026-04-29 15:10 | 44.59934 | 47.32172 | 2100 ft | 160 kts | 355° |
| 2026-04-29 15:10 | 44.61070 | 47.32019 | 1505 ft | 180 kts | 1° |
| 2026-04-29 15:10 | 44.62194 | 47.31997 | 1870 ft | 149 kts | 0° |
| 2026-04-29 15:11 | 44.63202 | 47.31805 | 1963 ft | 146 kts | 350° |
| 2026-04-29 15:11 | 44.64222 | 47.31414 | 2066 ft | 158 kts | 346° |
| 2026-04-29 15:11 | 44.65288 | 47.30923 | 2201 ft | 162 kts | 343° |
| 2026-04-29 15:11 | 44.66383 | 47.30569 | 2133 ft | 172 kts | 350° |
| 2026-04-29 15:12 | 44.67476 | 47.30036 | 2391 ft | 166 kts | 343° |
| 2026-04-29 15:12 | 44.68183 | 47.29637 | 2520 ft | 164 kts | 341° |
| 2026-04-29 15:12 | 44.69710 | 47.29095 | 2406 ft | 177 kts | 354° |
| 2026-04-29 15:12 | 44.70958 | 47.28856 | 2278 ft | 184 kts | 355° |
| 2026-04-29 15:13 | 44.72242 | 47.28653 | 2150 ft | 187 kts | 360° |
| 2026-04-29 15:13 | 44.73544 | 47.28640 | 2111 ft | 185 kts | 3° |
| 2026-04-29 15:13 | 44.74825 | 47.28658 | 2110 ft | 183 kts | 3° |
| 2026-04-29 15:13 | 44.76083 | 47.28675 | 1979 ft | 187 kts | 2° |
| 2026-04-29 15:14 | 44.76423 | 47.28584 | 2661 ft | 10 kts | 14° |
| 2026-04-29 15:14 | 44.77533 | 47.28448 | 1991 ft | 176 kts | 357° |
| 2026-04-29 15:14 | 44.78769 | 47.28329 | 1977 ft | 176 kts | 358° |
| 2026-04-29 15:14 | 44.79989 | 47.28115 | 1980 ft | 176 kts | 354° |
| 2026-04-29 15:15 | 44.81210 | 47.27889 | 1969 ft | 178 kts | 356° |
| 2026-04-29 15:15 | 44.82441 | 47.27691 | 1999 ft | 177 kts | 355° |
| 2026-04-29 15:15 | 44.83653 | 47.27555 | 2145 ft | 171 kts | 1° |
| 2026-04-29 15:15 | 44.84859 | 47.27514 | 2087 ft | 177 kts | 2° |
| 2026-04-29 15:16 | 44.86074 | 47.27436 | 2159 ft | 177 kts | 359° |
| 2026-04-29 15:16 | 44.87282 | 47.27291 | 2255 ft | 174 kts | 356° |
| 2026-04-29 15:16 | 44.88455 | 47.27066 | 2455 ft | 166 kts | 351° |
| 2026-04-29 15:16 | 44.89631 | 47.26538 | 2135 ft | 189 kts | 340° |
| 2026-04-29 15:17 | 44.90859 | 47.26238 | 2302 ft | 176 kts | 2° |
| 2026-04-29 15:17 | 44.92075 | 47.26304 | 2376 ft | 173 kts | 5° |
| 2026-04-29 15:17 | 44.93273 | 47.26370 | 2446 ft | 172 kts | 4° |
| 2026-04-29 15:17 | 44.94451 | 47.26402 | 2606 ft | 165 kts | 1° |
| 2026-04-29 15:18 | 44.95604 | 47.26328 | 2566 ft | 170 kts | 1° |
| 2026-04-29 15:18 | 44.96803 | 47.26110 | 2439 ft | 177 kts | 353° |
| 2026-04-29 15:18 | 44.98031 | 47.25795 | 2311 ft | 181 kts | 352° |
| 2026-04-29 15:18 | 44.99278 | 47.25472 | 2185 ft | 183 kts | 352° |
| 2026-04-29 15:19 | 45.00529 | 47.25154 | 2110 ft | 176 kts | 352° |
| 2026-04-29 15:19 | 45.01684 | 47.24849 | 2107 ft | 163 kts | 352° |
| 2026-04-29 15:19 | 45.02771 | 47.24552 | 2101 ft | 155 kts | 352° |
| 2026-04-29 15:19 | 45.03807 | 47.24266 | 2101 ft | 147 kts | 352° |
| 2026-04-29 15:20 | 45.04779 | 47.23998 | 2100 ft | 142 kts | 352° |
| 2026-04-29 15:20 | 45.05750 | 47.23730 | 2097 ft | 142 kts | 353° |
| 2026-04-29 15:20 | 45.06716 | 47.23482 | 2096 ft | 141 kts | 353° |
| 2026-04-29 15:20 | 45.07673 | 47.23224 | 2096 ft | 139 kts | 352° |
| 2026-04-29 15:21 | 45.08622 | 47.22983 | 2097 ft | 138 kts | 352° |
| 2026-04-29 15:21 | 45.09580 | 47.22754 | 2098 ft | 141 kts | 353° |
| 2026-04-29 15:21 | 45.10553 | 47.22509 | 2100 ft | 143 kts | 353° |
| 2026-04-29 15:21 | 45.11538 | 47.22257 | 2102 ft | 144 kts | 353° |
| 2026-04-29 15:22 | 45.12533 | 47.22010 | 2099 ft | 146 kts | 352° |
| 2026-04-29 15:22 | 45.13534 | 47.21742 | 2099 ft | 147 kts | 352° |
| 2026-04-29 15:22 | 45.14539 | 47.21484 | 2101 ft | 147 kts | 353° |
| 2026-04-29 15:22 | 45.15551 | 47.21241 | 2099 ft | 148 kts | 353° |
| 2026-04-29 15:23 | 45.16555 | 47.20966 | 2099 ft | 146 kts | 350° |
| 2026-04-29 15:23 | 45.17557 | 47.20688 | 2102 ft | 147 kts | 351° |
| 2026-04-29 15:23 | 45.18556 | 47.20417 | 2100 ft | 148 kts | 351° |
| 2026-04-29 15:23 | 45.19563 | 47.20140 | 2099 ft | 147 kts | 352° |
| 2026-04-29 15:24 | 45.20565 | 47.19860 | 2100 ft | 147 kts | 351° |
| 2026-04-29 15:24 | 45.21586 | 47.19634 | 2034 ft | 150 kts | 354° |
| 2026-04-29 15:24 | 45.22590 | 47.19400 | 2099 ft | 146 kts | 352° |
| 2026-04-29 15:24 | 45.23585 | 47.19124 | 2100 ft | 146 kts | 352° |
| 2026-04-29 15:25 | 45.24584 | 47.18863 | 2100 ft | 146 kts | 352° |
| 2026-04-29 15:25 | 45.25584 | 47.18609 | 2101 ft | 148 kts | 351° |
| 2026-04-29 15:25 | 45.26614 | 47.18344 | 2104 ft | 152 kts | 352° |
| 2026-04-29 15:25 | 45.27670 | 47.18095 | 2105 ft | 155 kts | 353° |
| 2026-04-29 15:26 | 45.28745 | 47.17892 | 2104 ft | 156 kts | 355° |
| 2026-04-29 15:26 | 45.29827 | 47.17699 | 2104 ft | 157 kts | 354° |
| 2026-04-29 15:26 | 45.30897 | 47.17520 | 2106 ft | 157 kts | 356° |
| 2026-04-29 15:26 | 45.31989 | 47.17300 | 2106 ft | 159 kts | 354° |
| 2026-04-29 15:27 | 45.33086 | 47.17079 | 2101 ft | 159 kts | 354° |
| 2026-04-29 15:27 | 45.34178 | 47.16857 | 2106 ft | 159 kts | 354° |
| 2026-04-29 15:27 | 45.35276 | 47.16628 | 2104 ft | 160 kts | 352° |
| 2026-04-29 15:27 | 45.36374 | 47.16359 | 2104 ft | 160 kts | 353° |
| 2026-04-29 15:28 | 45.37476 | 47.16122 | 2109 ft | 160 kts | 353° |
| 2026-04-29 15:28 | 45.38205 | 47.15972 | 2110 ft | 160 kts | 354° |
| 2026-04-29 15:28 | 45.39692 | 47.15642 | 2111 ft | 162 kts | 353° |
| 2026-04-29 15:28 | 45.40806 | 47.15398 | 2109 ft | 161 kts | 354° |
| 2026-04-29 15:29 | 45.41915 | 47.15139 | 2104 ft | 161 kts | 353° |
| 2026-04-29 15:29 | 45.44111 | 47.14640 | 2104 ft | 161 kts | 353° |
| 2026-04-29 15:30 | 45.46376 | 47.14128 | 2112 ft | 172 kts | 354° |
| 2026-04-29 15:30 | 45.47566 | 47.14226 | 2106 ft | 176 kts | 23° |
| 2026-04-29 15:30 | 45.48656 | 47.15042 | 2109 ft | 178 kts | 31° |
| 2026-04-29 15:30 | 45.49736 | 47.15916 | 2108 ft | 178 kts | 31° |
| 2026-04-29 15:31 | 45.50820 | 47.16789 | 2106 ft | 179 kts | 31° |
| 2026-04-29 15:31 | 45.51899 | 47.17674 | 2105 ft | 179 kts | 32° |
| 2026-04-29 15:31 | 45.52976 | 47.18560 | 2102 ft | 179 kts | 31° |
| 2026-04-29 15:31 | 45.54053 | 47.19448 | 2100 ft | 180 kts | 31° |
| 2026-04-29 15:32 | 45.55138 | 47.20346 | 2107 ft | 181 kts | 31° |
| 2026-04-29 15:32 | 45.56233 | 47.21258 | 2109 ft | 183 kts | 31° |
| 2026-04-29 15:32 | 45.57336 | 47.22184 | 2109 ft | 184 kts | 32° |
| 2026-04-29 15:32 | 45.58427 | 47.23102 | 2108 ft | 184 kts | 31° |
| 2026-04-29 15:33 | 45.59529 | 47.24035 | 2108 ft | 184 kts | 32° |
| 2026-04-29 15:33 | 45.60636 | 47.24968 | 2108 ft | 185 kts | 32° |
| 2026-04-29 15:33 | 45.61744 | 47.25897 | 2106 ft | 185 kts | 31° |
| 2026-04-29 15:33 | 45.62852 | 47.26831 | 2108 ft | 184 kts | 32° |
| 2026-04-29 15:34 | 45.63954 | 47.27759 | 2105 ft | 184 kts | 32° |
| 2026-04-29 15:34 | 45.65054 | 47.28689 | 2107 ft | 184 kts | 31° |
| 2026-04-29 15:34 | 45.66156 | 47.29617 | 2106 ft | 184 kts | 31° |
| 2026-04-29 15:34 | 45.67262 | 47.30542 | 2107 ft | 184 kts | 31° |
| 2026-04-29 15:35 | 45.68367 | 47.31466 | 2108 ft | 184 kts | 32° |
| 2026-04-29 15:35 | 45.69472 | 47.32396 | 2108 ft | 184 kts | 31° |
| 2026-04-29 15:35 | 45.70202 | 47.33016 | 2108 ft | 184 kts | 32° |
| 2026-04-29 15:35 | 45.71311 | 47.33934 | 2111 ft | 184 kts | 29° |
| 2026-04-29 15:36 | 45.72446 | 47.34791 | 2110 ft | 184 kts | 28° |
| 2026-04-29 15:36 | 45.73587 | 47.35641 | 2108 ft | 185 kts | 28° |
| 2026-04-29 15:36 | 45.74723 | 47.36491 | 2110 ft | 184 kts | 29° |
| 2026-04-29 15:36 | 45.75857 | 47.37335 | 2112 ft | 183 kts | 28° |
| 2026-04-29 15:37 | 45.76991 | 47.38180 | 2113 ft | 184 kts | 29° |
| 2026-04-29 15:37 | 45.78128 | 47.39019 | 2114 ft | 184 kts | 29° |
| 2026-04-29 15:37 | 45.79254 | 47.39841 | 2117 ft | 183 kts | 28° |
| 2026-04-29 15:37 | 45.80388 | 47.40676 | 2119 ft | 183 kts | 29° |
| 2026-04-29 15:38 | 45.81523 | 47.41514 | 2118 ft | 183 kts | 28° |
| 2026-04-29 15:38 | 45.82654 | 47.42360 | 2113 ft | 183 kts | 28° |
| 2026-04-29 15:38 | 45.83786 | 47.43201 | 2084 ft | 184 kts | 28° |
| 2026-04-29 15:38 | 45.84933 | 47.44051 | 2008 ft | 187 kts | 28° |
| 2026-04-29 15:39 | 45.86096 | 47.44908 | 1932 ft | 189 kts | 28° |
| 2026-04-29 15:39 | 45.87264 | 47.45769 | 1859 ft | 189 kts | 28° |
| 2026-04-29 15:39 | 45.88439 | 47.46639 | 1778 ft | 191 kts | 28° |
| 2026-04-29 15:39 | 45.89630 | 47.47501 | 1704 ft | 192 kts | 28° |
| 2026-04-29 15:40 | 45.90830 | 47.48366 | 1621 ft | 193 kts | 29° |
| 2026-04-29 15:40 | 45.92022 | 47.49223 | 1618 ft | 190 kts | 28° |
| 2026-04-29 15:40 | 45.93197 | 47.50074 | 1622 ft | 188 kts | 28° |
| 2026-04-29 15:40 | 45.94360 | 47.50927 | 1618 ft | 187 kts | 29° |
| 2026-04-29 15:41 | 45.95518 | 47.51773 | 1610 ft | 185 kts | 27° |
| 2026-04-29 15:41 | 45.96643 | 47.52615 | 1616 ft | 181 kts | 29° |
| 2026-04-29 15:41 | 45.97745 | 47.53449 | 1613 ft | 178 kts | 28° |
| 2026-04-29 15:41 | 45.98832 | 47.54263 | 1610 ft | 172 kts | 28° |
| 2026-04-29 15:42 | 45.99877 | 47.55045 | 1608 ft | 167 kts | 28° |
| 2026-04-29 15:42 | 46.00885 | 47.55802 | 1611 ft | 164 kts | 28° |
| 2026-04-29 15:42 | 46.01892 | 47.56555 | 1613 ft | 162 kts | 28° |
| 2026-04-29 15:42 | 46.02893 | 47.57301 | 1608 ft | 161 kts | 28° |
| 2026-04-29 15:43 | 46.03881 | 47.58041 | 1619 ft | 159 kts | 28° |
| 2026-04-29 15:43 | 46.04862 | 47.58784 | 1620 ft | 160 kts | 29° |
| 2026-04-29 15:43 | 46.05848 | 47.59536 | 1621 ft | 160 kts | 28° |
| 2026-04-29 15:43 | 46.06833 | 47.60285 | 1619 ft | 160 kts | 28° |
| 2026-04-29 15:44 | 46.07816 | 47.61032 | 1619 ft | 160 kts | 28° |
| 2026-04-29 15:44 | 46.08798 | 47.61777 | 1620 ft | 159 kts | 28° |
| 2026-04-29 15:44 | 46.09766 | 47.62510 | 1622 ft | 160 kts | 29° |
| 2026-04-29 15:44 | 46.10754 | 47.63255 | 1619 ft | 161 kts | 28° |
| 2026-04-29 15:45 | 46.11779 | 47.63904 | 1619 ft | 161 kts | 24° |
| 2026-04-29 15:45 | 46.12801 | 47.64510 | 1616 ft | 152 kts | 23° |
| 2026-04-29 15:45 | 46.13751 | 47.65071 | 1618 ft | 142 kts | 23° |
| 2026-04-29 15:45 | 46.14646 | 47.65594 | 1616 ft | 136 kts | 24° |
| 2026-04-29 15:46 | 46.15509 | 47.66099 | 1614 ft | 131 kts | 24° |
| 2026-04-29 15:46 | 46.16345 | 47.66599 | 1492 ft | 132 kts | 24° |
| 2026-04-29 15:46 | 46.17176 | 47.67120 | 1620 ft | 124 kts | 24° |
| 2026-04-29 15:46 | 46.17966 | 47.67553 | 1690 ft | 121 kts | 22° |
| 2026-04-29 15:47 | 46.18753 | 47.67985 | 1701 ft | 122 kts | 24° |
| 2026-04-29 15:47 | 46.19557 | 47.68414 | 1703 ft | 123 kts | 24° |
| 2026-04-29 15:47 | 46.20304 | 47.68949 | 1701 ft | 119 kts | 43° |
| 2026-04-29 15:47 | 46.20918 | 47.69771 | 1698 ft | 121 kts | 45° |
| 2026-04-29 15:48 | 46.21543 | 47.70600 | 1703 ft | 122 kts | 45° |
| 2026-04-29 15:48 | 46.22163 | 47.71428 | 1710 ft | 121 kts | 45° |
| 2026-04-29 15:48 | 46.22789 | 47.72257 | 1697 ft | 121 kts | 45° |
| 2026-04-29 15:48 | 46.23402 | 47.73057 | 1706 ft | 120 kts | 45° |
| 2026-04-29 15:49 | 46.24033 | 47.73854 | 1700 ft | 120 kts | 41° |
| 2026-04-29 15:49 | 46.24736 | 47.74521 | 1695 ft | 122 kts | 29° |
| 2026-04-29 15:49 | 46.25553 | 47.74932 | 1697 ft | 127 kts | 11° |
| 2026-04-29 15:49 | 46.26438 | 47.75038 | 1707 ft | 128 kts | 7° |
| 2026-04-29 15:50 | 46.27333 | 47.75113 | 1702 ft | 128 kts | 6° |
| 2026-04-29 15:50 | 46.28228 | 47.75188 | 1705 ft | 129 kts | 7° |
| 2026-04-29 15:50 | 46.29134 | 47.75265 | 1704 ft | 132 kts | 6° |
| 2026-04-29 15:50 | 46.30050 | 47.75383 | 1684 ft | 129 kts | 20° |
| 2026-04-29 15:51 | 46.30591 | 47.76235 | 1693 ft | 117 kts | 81° |
| 2026-04-29 15:51 | 46.30528 | 47.77411 | 1696 ft | 118 kts | 97° |
| 2026-04-29 15:51 | 46.30432 | 47.78570 | 1690 ft | 114 kts | 96° |
| 2026-04-29 15:51 | 46.30335 | 47.79646 | 1691 ft | 101 kts | 97° |
| 2026-04-29 15:52 | 46.30261 | 47.80553 | 1661 ft | 82 kts | 98° |
| 2026-04-29 15:52 | 46.30205 | 47.81324 | 1699 ft | 76 kts | 98° |
| 2026-04-29 15:52 | 46.29800 | 47.81731 | 1721 ft | 89 kts | 188° |
| 2026-04-29 15:52 | 46.29425 | 47.81018 | 1697 ft | 100 kts | 273° |
| 2026-04-29 15:53 | 46.29836 | 47.80287 | 1718 ft | 98 kts | 342° |
| 2026-04-29 15:53 | 46.30433 | 47.80547 | 1721 ft | 94 kts | 62° |
| 2026-04-29 15:53 | 46.30468 | 47.81518 | 1533 ft | 104 kts | 97° |
| 2026-04-29 15:53 | 46.30385 | 47.82484 | 1594 ft | 86 kts | 98° |
| 2026-04-29 15:54 | 46.30300 | 47.83276 | 1597 ft | 75 kts | 97° |
| 2026-04-29 15:54 | 46.30209 | 47.84024 | 1603 ft | 76 kts | 97° |
| 2026-04-29 15:54 | 46.30082 | 47.84782 | 1604 ft | 78 kts | 104° |
| 2026-04-29 15:54 | 46.29931 | 47.85544 | 1607 ft | 80 kts | 103° |
| 2026-04-29 15:55 | 46.29756 | 47.86289 | 1605 ft | 79 kts | 108° |
| 2026-04-29 15:55 | 46.29559 | 47.87034 | 1607 ft | 80 kts | 108° |
| 2026-04-29 15:55 | 46.29366 | 47.87782 | 1608 ft | 77 kts | 108° |
| 2026-04-29 15:55 | 46.29176 | 47.88482 | 1599 ft | 73 kts | 108° |
| 2026-04-29 15:56 | 46.29129 | 47.89229 | 1436 ft | 89 kts | 75° |
| 2026-04-29 15:56 | 46.29210 | 47.90137 | 1199 ft | 97 kts | 89° |
| 2026-04-29 15:56 | 46.29051 | 47.91133 | 453 ft | 121 kts | 99° |
| 2026-04-29 15:56 | 46.28986 | 47.92339 | 585 ft | 128 kts | 95° |
| 2026-04-29 15:57 | 46.28961 | 47.93793 | 422 ft | 136 kts | 89° |
| 2026-04-29 15:57 | 46.28846 | 47.94986 | 355 ft | 105 kts | 104° |
| 2026-04-29 15:57 | 46.28720 | 47.95922 | 236 ft | 89 kts | 94° |
| 2026-04-29 15:57 | 46.28645 | 47.96799 | 152 ft | 88 kts | 95° |
| 2026-04-29 15:58 | 46.28570 | 47.97681 | 67 ft | 87 kts | 95° |
| 2026-04-29 15:58 | 46.28497 | 47.98548 | -6 ft | 87 kts | 96° |
| 2026-04-29 15:58 | 46.28426 | 47.99421 | -63 ft | 86 kts | 95° |
| 2026-04-29 15:58 | 46.28361 | 48.00229 | -76 ft | 76 kts | 95° |
| 2026-04-29 15:59 | 46.28308 | 48.00857 | -79 ft | 51 kts | 95° |
| 2026-04-29 15:59 | 46.28273 | 48.01283 | -79 ft | 37 kts | 97° |
| 2026-04-29 15:59 | 46.28241 | 48.01667 | -78 ft | 41 kts | 96° |
| 2026-04-29 15:59 | 46.28210 | 48.02043 | -78 ft | 32 kts | 95° |
| 2026-04-29 16:00 | 46.28231 | 48.02240 | -72 ft | 13 kts | 2° |
| 2026-04-29 16:00 | 46.28317 | 48.02247 | -74 ft | 14 kts | 6° |
| 2026-04-29 16:00 | 46.28400 | 48.02231 | -73 ft | 11 kts | 283° |
| 2026-04-29 16:00 | 46.28422 | 48.01914 | -77 ft | 44 kts | 275° |
| 2026-04-29 16:01 | 46.28457 | 48.01523 | -77 ft | 37 kts | 278° |
| 2026-04-29 16:01 | 46.28493 | 48.01237 | -74 ft | 21 kts | 284° |
| 2026-04-29 16:01 | 46.28519 | 48.01036 | -77 ft | 21 kts | 279° |
| 2026-04-29 16:01 | 46.28543 | 48.00848 | -71 ft | 13 kts | 281° |
| 2026-04-29 16:02 | 46.28561 | 48.00713 | -77 ft | 17 kts | 281° |
| 2026-04-29 16:02 | 46.28574 | 48.00603 | -77 ft | 8 kts | 278° |
| 2026-04-29 16:02 | 46.28581 | 48.00523 | -77 ft | 9 kts | 277° |
| 2026-04-29 16:02 | 46.28589 | 48.00430 | -77 ft | 10 kts | 277° |
| 2026-04-29 16:03 | 46.28597 | 48.00332 | -69 ft | 10 kts | 276° |
| 2026-04-29 16:03 | 46.28605 | 48.00235 | -74 ft | 9 kts | 278° |
| 2026-04-29 16:03 | 46.28611 | 48.00141 | -77 ft | 10 kts | 264° |
| 2026-04-29 16:03 | 46.28612 | 48.00040 | -71 ft | 10 kts | 276° |
| 2026-04-29 16:04 | 46.28620 | 47.99936 | -71 ft | 10 kts | 275° |
| 2026-04-29 16:04 | 46.28628 | 47.99845 | -69 ft | 7 kts | 278° |
| 2026-04-29 16:04 | 46.28611 | 47.99781 | -74 ft | 8 kts | 200° |
| 2026-04-29 16:04 | 46.28559 | 47.99795 | -77 ft | 8 kts | 121° |
| 2026-04-29 16:05 | 46.28558 | 47.99842 | -72 ft | 6 kts | 60° |
| 2026-04-29 16:05 | 46.28583 | 47.99884 | -77 ft | 0 kts | 0° |